createdAt,value
2019-04-22T00:01:01.313Z,18.15
2019-04-22T00:03:41.547Z,18.25
2019-04-22T00:06:25.891Z,18.00
2019-04-22T00:08:55.649Z,18.15
2019-04-22T00:11:29.300Z,17.30
2019-04-22T00:13:57.089Z,18.98
2019-04-22T00:16:33.817Z,17.75
2019-04-22T00:24:07.710Z,18.65
2019-04-22T00:26:38.063Z,20.20
2019-04-22T00:29:21.048Z,18.85
2019-04-22T00:31:37.238Z,18.75
2019-04-22T00:34:06.449Z,21.80
2019-04-22T00:36:38.031Z,20.80
2019-04-22T00:39:18.523Z,21.60
2019-04-22T00:41:47.285Z,21.55
2019-04-22T00:44:19.090Z,20.80
2019-04-22T00:46:46.173Z,20.50
2019-04-22T00:50:03.783Z,20.90
2019-04-22T00:52:07.184Z,22.48
2019-04-22T00:54:13.705Z,22.82
2019-04-22T00:56:40.897Z,22.40
2019-04-22T00:59:12.921Z,23.20
2019-04-22T01:01:50.173Z,23.35
2019-04-22T01:04:20.368Z,22.98
2019-04-22T01:06:44.562Z,24.85
2019-04-22T01:09:30.081Z,23.70
2019-04-22T01:12:00.122Z,24.50
2019-04-22T01:14:12.531Z,23.67
2019-04-22T01:16:46.140Z,23.02
2019-04-22T01:19:15.074Z,24.60
2019-04-22T01:21:45.052Z,24.72
2019-04-22T01:24:12.250Z,24.77
2019-04-22T01:26:38.922Z,24.43
2019-04-22T01:29:05.328Z,23.85
2019-04-22T01:31:25.979Z,24.18
2019-04-22T01:34:05.458Z,23.87
2019-04-22T01:36:45.687Z,23.00
2019-04-22T01:39:16.460Z,23.87
2019-04-22T01:41:55.208Z,23.67
2019-04-22T01:44:24.192Z,25.08
2019-04-22T01:46:49.620Z,25.10
2019-04-22T01:49:25.667Z,23.77
2019-04-22T01:54:22.287Z,22.45
2019-04-22T01:59:11.001Z,25.52
2019-04-22T02:01:52.497Z,24.45
2019-04-22T02:04:30.289Z,24.02
2019-04-22T02:06:48.275Z,24.87
2019-04-22T02:09:22.549Z,24.57
2019-04-22T02:11:58.539Z,24.75
2019-04-22T02:14:26.961Z,23.87
2019-04-22T02:16:56.149Z,23.90
2019-04-22T02:19:25.445Z,23.70
2019-04-22T02:21:51.554Z,24.80
2019-04-22T02:24:26.369Z,24.30
2019-04-22T02:26:47.009Z,23.02
2019-04-22T02:29:26.368Z,23.02
2019-04-22T02:34:38.225Z,23.87
2019-04-22T02:36:56.206Z,23.67
2019-04-22T02:39:24.313Z,24.07
2019-04-22T02:42:09.405Z,24.85
2019-04-22T02:44:28.705Z,23.62
2019-04-22T02:47:10.142Z,25.90
2019-04-22T02:52:03.926Z,25.02
2019-04-22T02:54:40.682Z,25.20
2019-04-22T02:57:03.705Z,23.62
2019-04-22T02:59:34.983Z,24.90
2019-04-22T03:04:51.251Z,23.65
2019-04-22T03:07:03.452Z,25.43
2019-04-22T03:09:58.110Z,25.15
2019-04-22T03:12:16.440Z,24.85
2019-04-22T03:17:17.658Z,26.12
2019-04-22T03:22:16.965Z,23.38
2019-04-22T03:25:05.910Z,23.57
2019-04-22T03:27:19.714Z,23.95
2019-04-22T03:37:48.008Z,24.00
2019-04-22T03:53:06.260Z,23.75
2019-04-22T03:57:53.899Z,22.35
2019-04-22T04:00:35.725Z,21.75
2019-04-22T04:05:49.259Z,22.93
2019-04-22T04:15:23.593Z,21.07
2019-04-22T04:28:26.691Z,20.17
2019-04-22T04:30:29.985Z,18.90
2019-04-22T04:32:58.973Z,19.65
2019-04-22T04:35:32.468Z,19.25
2019-04-22T04:40:28.840Z,19.35
2019-04-22T04:42:54.395Z,19.60
2019-04-22T04:47:54.680Z,18.40
2019-04-22T04:53:12.846Z,18.12
2019-04-22T04:58:05.469Z,16.70
2019-04-22T05:07:55.487Z,16.60
2019-04-22T05:12:56.702Z,16.85
2019-04-22T05:15:27.026Z,16.82
2019-04-22T05:17:57.830Z,17.23
2019-04-22T05:20:32.047Z,16.48
2019-04-22T05:23:05.856Z,16.02
2019-04-22T05:28:06.738Z,14.70
2019-04-22T05:32:48.878Z,16.12
2019-04-22T05:37:58.115Z,15.98
2019-04-22T05:40:24.477Z,16.25
2019-04-22T05:42:51.539Z,16.80
2019-04-22T05:45:22.502Z,16.90
2019-04-22T05:47:52.031Z,17.55
2019-04-22T05:50:23.849Z,16.17
2019-04-22T05:52:51.336Z,16.80
2019-04-22T05:57:59.692Z,15.93
2019-04-22T06:00:35.372Z,15.55
2019-04-22T06:05:25.040Z,15.50
2019-04-22T06:07:59.431Z,15.40
2019-04-22T06:10:30.804Z,14.15
2019-04-22T06:12:48.094Z,13.68
2019-04-22T06:15:24.123Z,14.03
2019-04-22T06:18:04.524Z,14.73
2019-04-22T06:20:23.709Z,14.80
2019-04-22T06:23:00.305Z,13.80
2019-04-22T06:25:38.852Z,13.22
2019-04-22T06:27:53.916Z,13.22
2019-04-22T06:30:29.185Z,15.03
2019-04-22T06:32:56.863Z,13.28
2019-04-22T06:35:31.220Z,13.88
2019-04-22T06:40:28.874Z,13.70
2019-04-22T06:45:40.002Z,12.37
2019-04-22T06:50:50.698Z,12.95
2019-04-22T06:53:25.206Z,12.18
2019-04-22T06:55:51.364Z,12.13
2019-04-22T06:58:20.250Z,10.95
2019-04-22T07:01:09.770Z,12.73
2019-04-22T07:05:57.725Z,11.83
2019-04-22T07:09:00.811Z,10.93
2019-04-22T07:10:58.281Z,10.98
2019-04-22T07:15:57.781Z,10.80
2019-04-22T07:18:41.918Z,10.78
2019-04-22T07:21:00.970Z,10.63
2019-04-22T07:23:37.440Z,10.43
2019-04-22T07:25:58.417Z,10.32
2019-04-22T07:28:24.470Z,10.03
2019-04-22T07:31:10.327Z,9.15
2019-04-22T07:33:48.802Z,9.48
2019-04-22T07:36:32.141Z,9.68
2019-04-22T07:38:53.120Z,8.70
2019-04-22T07:41:05.606Z,8.50
2019-04-22T07:43:59.839Z,7.50
2019-04-22T07:46:10.980Z,7.87
2019-04-22T07:51:27.069Z,7.25
2019-04-22T07:53:45.584Z,7.75
2019-04-22T07:56:12.186Z,7.80
2019-04-22T07:58:45.788Z,8.20
2019-04-22T08:01:19.122Z,7.75
2019-04-22T08:08:45.391Z,7.50
2019-04-22T08:11:30.621Z,7.15
2019-04-22T08:13:59.006Z,7.70
2019-04-22T08:16:16.817Z,7.20
2019-04-22T08:18:52.663Z,7.10
2019-04-22T08:21:35.818Z,6.80
2019-04-22T08:23:50.975Z,6.92
2019-04-22T08:26:20.590Z,7.33
2019-04-22T08:28:54.581Z,7.30
2019-04-22T08:31:29.993Z,7.58
2019-04-22T08:33:59.663Z,7.87
2019-04-22T08:39:04.470Z,9.55
2019-04-22T08:44:00.970Z,7.95
2019-04-22T08:49:17.734Z,7.70
2019-04-22T08:51:49.548Z,7.67
2019-04-22T08:59:15.132Z,8.48
2019-04-22T09:01:39.161Z,7.53
2019-04-22T09:04:10.087Z,8.08
2019-04-22T09:07:10.455Z,7.87
2019-04-22T09:11:41.859Z,8.20
2019-04-22T09:14:13.959Z,8.20
2019-04-22T09:19:27.343Z,7.95
2019-04-22T09:21:39.006Z,7.65
2019-04-22T09:24:10.283Z,7.45
2019-04-22T09:26:43.601Z,7.42
2019-04-22T09:29:05.119Z,8.38
2019-04-22T09:32:00.416Z,7.53
2019-04-22T09:34:30.775Z,8.18
2019-04-22T09:36:59.461Z,7.90
2019-04-22T09:39:29.439Z,7.15
2019-04-22T09:42:02.993Z,8.38
2019-04-22T09:44:24.641Z,8.25
2019-04-22T09:46:51.975Z,7.47
2019-04-22T09:49:36.585Z,7.87
2019-04-22T09:52:02.861Z,8.03
2019-04-22T09:54:41.902Z,7.87
2019-04-22T09:57:06.975Z,8.38
2019-04-22T09:59:36.883Z,8.13
2019-04-22T10:02:21.978Z,7.95
2019-04-22T10:04:40.238Z,8.03
2019-04-22T10:07:13.853Z,7.55
2019-04-22T10:09:53.119Z,6.70
2019-04-22T10:12:10.427Z,7.60
2019-04-22T10:14:38.314Z,8.10
2019-04-22T10:17:13.992Z,7.67
2019-04-22T10:19:39.018Z,8.30
2019-04-22T10:22:17.142Z,8.05
2019-04-22T10:24:39.224Z,7.78
2019-04-22T10:27:08.001Z,7.53
2019-04-22T10:29:41.667Z,7.15
2019-04-22T10:32:06.821Z,7.58
2019-04-22T10:34:26.996Z,6.53
2019-04-22T10:36:50.458Z,7.45
2019-04-22T10:39:16.261Z,7.65
2019-04-22T10:41:44.452Z,7.83
2019-04-22T10:44:13.065Z,7.15
2019-04-22T10:46:42.275Z,7.85
2019-04-22T10:49:16.163Z,7.87
2019-04-22T10:51:44.525Z,7.30
2019-04-22T10:54:13.578Z,7.35
2019-04-22T10:56:43.119Z,6.17
2019-04-22T10:59:11.435Z,7.20
2019-04-22T11:01:42.339Z,6.40
2019-04-22T11:04:15.682Z,7.33
2019-04-22T11:06:52.336Z,7.03
2019-04-22T11:09:14.413Z,7.87
2019-04-22T11:11:52.094Z,6.45
2019-04-22T11:14:12.841Z,7.20
2019-04-22T11:16:41.619Z,6.95
2019-04-22T11:19:09.932Z,6.47
2019-04-22T11:21:38.203Z,6.62
2019-04-22T11:24:12.652Z,7.42
2019-04-22T11:26:41.074Z,6.08
2019-04-22T11:29:09.964Z,6.55
2019-04-22T11:31:38.779Z,5.78
2019-04-22T11:34:07.057Z,6.50
2019-04-22T11:36:36.961Z,6.05
2019-04-22T11:39:09.682Z,5.75
2019-04-22T11:41:36.255Z,6.25
2019-04-22T11:44:05.395Z,5.83
2019-04-22T11:46:33.901Z,6.03
2019-04-22T11:49:03.645Z,6.53
2019-04-22T11:51:33.767Z,5.70
2019-04-22T11:54:08.076Z,6.05
2019-04-22T11:56:36.953Z,5.65
2019-04-22T11:59:10.979Z,6.25
2019-04-22T12:01:39.256Z,6.85
2019-04-22T12:04:38.148Z,5.58
2019-04-22T12:07:06.760Z,5.80
2019-04-22T12:09:35.396Z,5.65
2019-04-22T12:12:03.560Z,6.58
2019-04-22T12:14:34.289Z,6.45
2019-04-22T12:17:03.580Z,5.95
2019-04-22T12:19:38.131Z,5.83
2019-04-22T12:22:13.307Z,5.75
2019-04-22T12:24:42.535Z,5.40
2019-04-22T12:27:12.347Z,5.78
2019-04-22T12:29:40.791Z,5.95
2019-04-22T12:32:15.838Z,6.35
2019-04-22T12:34:44.463Z,6.28
2019-04-22T12:37:14.844Z,5.92
2019-04-22T12:39:43.535Z,6.03
2019-04-22T12:42:13.175Z,5.75
2019-04-22T12:44:43.609Z,5.08
2019-04-22T12:47:17.775Z,5.78
2019-04-22T12:49:49.293Z,5.55
2019-04-22T12:52:24.092Z,5.72
2019-04-22T12:54:46.892Z,5.42
2019-04-22T12:57:16.699Z,5.80
2019-04-22T12:59:45.733Z,5.45
2019-04-22T13:02:15.389Z,5.15
2019-04-22T13:04:49.995Z,5.90
2019-04-22T13:07:18.189Z,4.85
2019-04-22T13:09:47.365Z,5.00
2019-04-22T13:12:17.062Z,4.50
2019-04-22T13:14:45.819Z,5.45
2019-04-22T13:17:15.702Z,5.00
2019-04-22T13:19:44.636Z,4.62
2019-04-22T13:22:12.879Z,5.15
2019-04-22T13:24:41.651Z,5.08
2019-04-22T13:27:10.951Z,5.00
2019-04-22T13:29:41.115Z,4.97
2019-04-22T13:32:10.824Z,4.70
2019-04-22T13:34:45.636Z,5.20
2019-04-22T13:37:10.763Z,4.42
2019-04-22T13:39:39.058Z,4.60
2019-04-22T13:42:15.387Z,4.17
2019-04-22T13:44:39.930Z,4.10
2019-04-22T13:47:22.244Z,4.12
2019-04-22T13:52:40.923Z,4.62
2019-04-22T13:54:19.001Z,3.92
2019-04-22T13:57:32.596Z,4.45
2019-04-22T13:59:50.571Z,4.33
2019-04-22T14:02:34.764Z,4.25
2019-04-22T14:05:14.899Z,3.75
2019-04-22T14:07:57.176Z,3.75
2019-04-22T14:10:26.823Z,3.85
2019-04-22T14:12:55.181Z,4.25
2019-04-22T14:15:24.324Z,3.35
2019-04-22T14:17:52.821Z,3.62
2019-04-22T14:20:24.077Z,3.67
2019-04-22T14:22:52.564Z,3.33
2019-04-22T14:25:20.972Z,4.00
2019-04-22T14:27:56.525Z,4.28
2019-04-22T14:30:19.215Z,4.08
2019-04-22T14:32:54.420Z,4.00
2019-04-22T14:35:23.074Z,4.80
2019-04-22T14:37:58.216Z,5.35
2019-04-22T14:40:40.937Z,4.35
2019-04-22T14:43:28.900Z,4.55
2019-04-22T14:46:10.957Z,4.90
2019-04-22T14:48:38.711Z,4.58
2019-04-22T14:50:56.007Z,3.95
2019-04-22T14:53:32.296Z,3.55
2019-04-22T14:55:48.549Z,4.37
2019-04-22T14:58:17.269Z,5.25
2019-04-22T15:00:46.074Z,5.05
2019-04-22T15:03:15.476Z,5.45
2019-04-22T15:05:46.150Z,5.47
2019-04-22T15:08:15.079Z,4.62
2019-04-22T15:10:44.048Z,5.30
2019-04-22T15:13:13.471Z,5.08
2019-04-22T15:16:02.970Z,4.50
2019-04-22T15:18:45.991Z,5.22
2019-04-22T15:21:23.187Z,5.00
2019-04-22T15:23:52.781Z,4.65
2019-04-22T15:26:22.321Z,4.90
2019-04-22T15:28:51.409Z,4.75
2019-04-22T15:31:19.909Z,3.90
2019-04-22T15:33:50.304Z,3.85
2019-04-22T15:36:20.407Z,4.35
2019-04-22T15:38:49.212Z,4.10
2019-04-22T15:41:18.663Z,5.15
2019-04-22T15:43:47.790Z,5.33
2019-04-22T15:46:16.355Z,5.05
2019-04-22T15:48:51.843Z,4.92
2019-04-22T15:51:20.715Z,5.40
2019-04-22T15:53:49.585Z,5.40
2019-04-22T15:56:18.806Z,4.72
2019-04-22T15:58:47.972Z,4.62
2019-04-22T16:01:22.994Z,4.00
2019-04-22T16:03:47.055Z,4.47
2019-04-22T16:06:18.158Z,4.45
2019-04-22T16:08:47.763Z,4.22
2019-04-22T16:11:17.960Z,4.33
2019-04-22T16:13:50.582Z,4.60
2019-04-22T16:16:18.871Z,4.30
2019-04-22T16:18:48.474Z,4.67
2019-04-22T16:21:27.658Z,3.72
2019-04-22T16:23:50.035Z,3.98
2019-04-22T16:26:20.310Z,4.08
2019-04-22T16:28:49.635Z,4.12
2019-04-22T16:31:19.546Z,4.12
2019-04-22T16:33:47.925Z,4.33
2019-04-22T16:36:16.770Z,3.65
2019-04-22T16:38:46.877Z,3.90
2019-04-22T16:41:15.187Z,4.22
2019-04-22T16:43:47.146Z,4.30
2019-04-22T16:48:45.418Z,3.77
2019-04-22T16:51:14.051Z,4.05
2019-04-22T16:53:43.195Z,4.20
2019-04-22T16:56:15.205Z,3.77
2019-04-22T16:58:43.570Z,3.22
2019-04-22T17:01:34.680Z,3.58
2019-04-22T17:04:18.812Z,3.80
2019-04-22T17:06:49.792Z,3.65
2019-04-22T17:09:19.529Z,4.12
2019-04-22T17:11:50.157Z,3.75
2019-04-22T17:14:29.593Z,4.20
2019-04-22T17:17:00.155Z,3.62
2019-04-22T17:19:29.176Z,3.87
2019-04-22T17:21:57.836Z,3.65
2019-04-22T17:24:27.747Z,3.50
2019-04-22T17:26:56.709Z,3.58
2019-04-22T17:29:26.279Z,4.10
2019-04-22T17:32:12.805Z,3.77
2019-04-22T17:34:39.545Z,4.12
2019-04-22T17:37:15.510Z,3.80
2019-04-22T17:39:53.177Z,3.77
2019-04-22T17:42:29.399Z,3.90
2019-04-22T17:45:22.302Z,3.83
2019-04-22T17:48:12.759Z,4.33
2019-04-22T17:50:46.801Z,3.42
2019-04-22T17:53:31.529Z,3.67
2019-04-22T17:56:00.151Z,3.77
2019-04-22T17:58:36.662Z,3.40
2019-04-22T18:01:05.889Z,2.92
2019-04-22T18:03:25.739Z,3.37
2019-04-22T18:05:55.440Z,2.70
2019-04-22T18:08:36.467Z,2.58
2019-04-22T18:11:21.782Z,3.15
2019-04-22T18:13:50.586Z,2.98
2019-04-22T18:16:15.048Z,3.50
2019-04-22T18:18:48.504Z,2.50
2019-04-22T18:23:29.292Z,2.58
2019-04-22T18:26:14.709Z,3.35
2019-04-22T18:28:52.536Z,2.45
2019-04-22T18:31:12.014Z,2.75
2019-04-22T18:33:46.397Z,3.20
2019-04-22T18:36:17.206Z,2.42
2019-04-22T18:38:52.519Z,2.70
2019-04-22T18:41:15.177Z,2.10
2019-04-22T18:43:53.119Z,2.80
2019-04-22T18:46:14.593Z,2.42
2019-04-22T18:48:52.300Z,2.42
2019-04-22T18:51:43.856Z,2.20
2019-04-22T18:54:13.524Z,2.42
2019-04-22T18:56:42.141Z,2.33
2019-04-22T18:59:05.085Z,2.17
2019-04-22T19:01:23.994Z,2.42
2019-04-22T19:04:01.371Z,2.45
2019-04-22T19:06:47.386Z,2.17
2019-04-22T19:09:22.403Z,1.85
2019-04-22T19:12:03.152Z,1.87
2019-04-22T19:14:17.864Z,2.08
2019-04-22T19:16:44.554Z,1.90
2019-04-22T19:19:30.535Z,2.05
2019-04-22T19:21:47.631Z,2.75
2019-04-22T19:24:17.071Z,2.40
2019-04-22T19:29:20.391Z,1.80
2019-04-22T19:31:45.893Z,2.00
2019-04-22T19:34:16.238Z,1.87
2019-04-22T19:36:51.610Z,2.25
2019-04-22T19:39:14.793Z,1.82
2019-04-22T19:41:50.243Z,1.85
2019-04-22T19:44:20.169Z,2.05
2019-04-22T19:47:08.981Z,2.10
2019-04-22T19:52:02.531Z,2.30
2019-04-22T19:54:17.449Z,1.98
2019-04-22T19:56:42.781Z,1.90
2019-04-22T19:59:14.970Z,2.05
2019-04-22T20:02:00.968Z,1.72
2019-04-22T20:04:41.572Z,1.60
2019-04-22T20:07:09.903Z,2.33
2019-04-22T20:09:43.804Z,1.83
2019-04-22T20:12:04.361Z,2.02
2019-04-22T20:14:41.946Z,1.65
2019-04-22T20:17:11.450Z,1.90
2019-04-22T20:19:48.066Z,2.27
2019-04-22T20:22:09.817Z,1.82
2019-04-22T20:24:27.755Z,1.62
2019-04-22T20:27:13.598Z,1.90
2019-04-22T20:29:41.726Z,1.70
2019-04-22T20:32:10.962Z,1.98
2019-04-22T20:34:44.836Z,1.67
2019-04-22T20:37:16.596Z,1.90
2019-04-22T20:39:44.209Z,1.87
2019-04-22T20:42:26.556Z,1.95
2019-04-22T20:44:47.339Z,1.87
2019-04-22T20:47:09.051Z,2.72
2019-04-22T20:49:41.607Z,2.90
2019-04-22T20:52:29.660Z,2.25
2019-04-22T20:54:40.770Z,2.10
2019-04-22T20:57:09.771Z,3.00
2019-04-22T20:59:42.909Z,1.92
2019-04-22T21:02:06.623Z,2.35
2019-04-22T21:04:35.772Z,2.10
2019-04-22T21:07:09.550Z,1.90
2019-04-22T21:09:43.049Z,3.15
2019-04-22T21:12:09.058Z,2.50
2019-04-22T21:14:47.221Z,2.65
2019-04-22T21:17:13.150Z,2.22
2019-04-22T21:19:58.380Z,2.37
2019-04-22T21:22:17.362Z,2.20
2019-04-22T21:24:43.481Z,2.80
2019-04-22T21:27:22.343Z,2.40
2019-04-22T21:29:48.351Z,2.35
2019-04-22T21:32:21.760Z,2.70
2019-04-22T21:35:03.254Z,2.42
2019-04-22T21:37:27.997Z,2.45
2019-04-22T21:39:46.599Z,2.62
2019-04-22T21:42:26.758Z,2.27
2019-04-22T21:44:51.143Z,2.00
2019-04-22T21:47:30.403Z,2.27
2019-04-22T21:50:19.144Z,2.67
2019-04-22T21:52:29.376Z,2.50
2019-04-22T21:55:04.349Z,2.72
2019-04-22T21:57:46.527Z,2.60
2019-04-22T22:00:25.233Z,2.60
2019-04-22T22:02:52.227Z,2.12
2019-04-22T22:05:08.647Z,2.95
2019-04-22T22:07:26.794Z,2.20
2019-04-22T22:10:12.392Z,2.58
2019-04-22T22:12:45.986Z,2.65
2019-04-22T22:15:13.276Z,2.30
2019-04-22T22:17:42.224Z,2.27
2019-04-22T22:20:05.899Z,2.52
2019-04-22T22:25:14.398Z,2.45
2019-04-22T22:27:45.695Z,2.67
2019-04-22T22:30:38.857Z,2.77
2019-04-22T22:32:51.421Z,2.22
2019-04-22T22:35:16.485Z,2.22
2019-04-22T22:37:45.022Z,2.47
2019-04-22T22:40:07.504Z,2.05
2019-04-22T22:42:36.991Z,2.10
2019-04-22T22:45:10.650Z,1.98
2019-04-22T22:47:57.877Z,2.42
2019-04-22T22:50:20.144Z,2.00
2019-04-22T22:52:59.303Z,2.60
2019-04-22T22:55:24.920Z,2.83
2019-04-22T22:57:52.228Z,2.50
2019-04-22T23:00:24.486Z,1.95
2019-04-22T23:03:23.295Z,2.47
2019-04-22T23:05:34.075Z,2.50
2019-04-22T23:08:02.428Z,2.77
2019-04-22T23:10:34.061Z,2.37
2019-04-22T23:13:08.471Z,2.30
2019-04-22T23:15:25.932Z,2.10
2019-04-22T23:17:41.309Z,2.47
2019-04-22T23:20:09.801Z,2.25
2019-04-22T23:23:07.832Z,2.33
2019-04-22T23:25:44.774Z,2.50
2019-04-22T23:28:19.438Z,2.35
2019-04-22T23:30:45.754Z,2.30
2019-04-22T23:33:35.364Z,2.42
2019-04-22T23:36:12.611Z,2.42
2019-04-22T23:38:51.806Z,2.30
2019-04-22T23:44:11.312Z,2.62
2019-04-22T23:46:37.932Z,2.58
2019-04-22T23:49:08.777Z,2.20
2019-04-22T23:51:50.188Z,2.98
2019-04-22T23:54:18.642Z,2.37
2019-04-22T23:56:36.426Z,3.20
2019-04-22T23:59:14.752Z,3.05
